Hauptseite
METAR-TAF:

METAR-TAF

Flughäfen :

Germiston, Südafrika

Breite: 26-14-33S, Länge: 028-09-04E, Höhe: 1671 m

Beobachtung

Neuester Wetterbericht von vor 12 Stunden und 0 Minuten, um 17:00 UTC
Wind 5 kt aus West/Nordwest
Temperatur 19°C
Luftfeuchtigkeit 83%
Luftdruck 1023 hPa
Sichtweite: 7000 m
Durchbrochene Bewölkung in der Höhe von 2000 ft

METAR: FAGM 211700Z 29005KT 7000 BKN020 19/16 Q1023

Zeit: 07:00 (05:00 UTC)


TAF: fehlend

Wetterbeobachtungen und Prognosen von mehr als 4000 Flughäfen (METAR und TAF Bericht).

Die verfügbaren Stationen werden durch gelbe und rote Markierungen auf der Karte dargestellt.

Führen Sie die Maus auf sie, um den Namen der Station zu sehen.

Darauf klicken, um die Beobachtung von Wetterbeobachtungen und Prognosen zu sehen.

Um die Karte zu ändern : klicken Sie auf den grünen Tasten mit einem schwarzen Kreuz Zum Vergrößern, auf den grünen Button mit einem Gedankenstrich zu verkleinern, oder auf die grünen Pfeile für benachbarte Karten.


METAR-TAF: